Time;durP1;ratioP1;P1;durP2;ratioP2;P2;SDS_P1;SDS_P2;PMS_P1;PMS_P2;Temp;Humidity;BMP_temperature;BMP_pressure;BME280_temperature;BME280_humidity;BME280_pressure;Samples;Min_cycle;Max_cycle;Signal;HPM_P1;HPM_P2
2021/01/06 00:01:23;;;;;;;6.90;6.20;;;4.30;73.70;;;;;;5047152;28;20036;-74
2021/01/06 00:03:49;;;;;;;10.75;6.32;;;4.30;73.70;;;;;;5029583;28;20122;-74
2021/01/06 00:06:16;;;;;;;9.35;6.55;;;4.30;73.80;;;;;;5047204;28;20132;-74
2021/01/06 00:08:44;;;;;;;8.25;6.75;;;4.30;73.80;;;;;;5047295;28;20522;-73
2021/01/06 00:11:11;;;;;;;7.78;5.72;;;4.20;73.60;;;;;;5047797;28;20474;-75
2021/01/06 00:13:37;;;;;;;7.95;6.88;;;4.30;73.80;;;;;;5045674;28;20033;-74
2021/01/06 00:16:04;;;;;;;11.30;6.80;;;4.20;73.70;;;;;;5047091;28;20111;-74
2021/01/06 00:18:30;;;;;;;8.82;6.82;;;4.20;73.70;;;;;;5029012;28;20025;-74
2021/01/06 00:20:57;;;;;;;6.57;5.95;;;4.20;73.70;;;;;;5047946;28;20037;-76
2021/01/06 00:23:24;;;;;;;7.63;6.80;;;4.20;73.70;;;;;;5047425;28;20024;-76
2021/01/06 00:25:50;;;;;;;10.10;7.45;;;4.20;73.80;;;;;;5046968;28;20037;-74
2021/01/06 00:28:20;;;;;;;11.02;7.15;;;4.20;73.80;;;;;;5046662;28;20287;-75
2021/01/06 00:30:57;;;;;;;8.32;6.55;;;4.10;73.60;;;;;;5046813;28;20060;-80
2021/01/06 00:33:25;;;;;;;8.82;7.93;;;4.10;73.60;;;;;;5045896;28;20400;-74
2021/01/06 00:36:05;;;;;;;13.73;6.55;;;4.10;73.60;;;;;;5044463;28;20028;-76
2021/01/06 00:38:32;;;;;;;8.00;7.22;;;4.10;73.60;;;;;;5045892;28;20029;-79
2021/01/06 00:40:58;;;;;;;6.82;6.28;;;4.10;73.60;;;;;;5045803;28;20029;-74
2021/01/06 00:43:24;;;;;;;7.78;6.72;;;4.10;73.60;;;;;;5045128;28;20056;-73
2021/01/06 00:45:51;;;;;;;9.00;7.13;;;4.10;73.60;;;;;;5028231;28;20032;-77
2021/01/06 00:48:18;;;;;;;9.45;7.05;;;4.10;73.60;;;;;;5046974;28;20053;-79
2021/01/06 00:50:45;;;;;;;10.00;6.32;;;4.10;73.70;;;;;;5047183;28;20453;-75
2021/01/06 00:53:15;;;;;;;8.43;7.35;;;4.10;73.60;;;;;;5045425;28;20056;-75
2021/01/06 00:55:43;;;;;;;8.20;7.38;;;4.10;73.60;;;;;;5044112;28;20033;-75
2021/01/06 00:58:09;;;;;;;9.25;6.78;;;4.00;73.50;;;;;;5045618;28;20029;-76
2021/01/06 01:00:36;;;;;;;8.05;6.55;;;4.00;73.50;;;;;;5045296;28;20035;-76
2021/01/06 01:03:08;;;;;;;11.13;7.40;;;4.10;73.70;;;;;;5045346;28;20032;-74
2021/01/06 01:05:36;;;;;;;10.45;7.95;;;4.10;73.70;;;;;;5045570;28;20052;-75
2021/01/06 01:08:03;;;;;;;8.10;7.10;;;4.00;73.50;;;;;;5044421;28;20081;-76
2021/01/06 01:10:39;;;;;;;7.38;6.65;;;4.00;73.50;;;;;;5046284;28;20056;-75
2021/01/06 01:13:08;;;;;;;8.43;7.60;;;4.00;73.50;;;;;;5046208;28;20499;-76
2021/01/06 01:15:36;;;;;;;10.38;7.22;;;4.00;73.50;;;;;;5027895;28;20132;-78
2021/01/06 01:18:04;;;;;;;10.32;7.40;;;4.00;73.50;;;;;;5044384;28;20092;-75
2021/01/06 01:20:30;;;;;;;9.20;7.38;;;4.00;73.50;;;;;;5045620;28;20025;-74
2021/01/06 01:22:56;;;;;;;10.52;7.70;;;4.00;73.60;;;;;;5045911;28;20029;-74
2021/01/06 01:25:24;;;;;;;10.25;7.38;;;4.00;73.60;;;;;;5045746;28;20132;-74
2021/01/06 01:27:51;;;;;;;8.45;7.10;;;4.00;73.60;;;;;;5045497;28;20376;-74
2021/01/06 01:30:26;;;;;;;10.90;7.25;;;3.90;73.40;;;;;;5044745;28;20390;-74
2021/01/06 01:32:52;;;;;;;9.85;6.85;;;3.90;73.40;;;;;;5044383;28;20056;-74
2021/01/06 01:35:30;;;;;;;10.25;7.43;;;3.90;73.40;;;;;;5045118;28;20068;-74
2021/01/06 01:37:58;;;;;;;11.85;7.63;;;3.90;73.40;;;;;;5045627;28;20863;-74
2021/01/06 01:40:25;;;;;;;8.00;7.20;;;3.90;73.40;;;;;;5045825;28;20098;-74
2021/01/06 01:43:07;;;;;;;7.57;6.82;;;3.90;73.40;;;;;;5043584;28;20026;-74
2021/01/06 01:45:45;;;;;;;7.68;6.88;;;3.90;73.40;;;;;;5044955;28;20504;-74
2021/01/06 01:48:23;;;;;;;8.55;6.68;;;3.90;73.40;;;;;;5045079;28;20147;-74
2021/01/06 01:50:51;;;;;;;9.02;7.22;;;3.80;73.20;;;;;;5045157;28;20441;-76
2021/01/06 01:53:27;;;;;;;9.77;6.32;;;3.80;73.20;;;;;;5043939;28;20029;-76
2021/01/06 01:55:54;;;;;;;7.72;6.88;;;3.80;73.20;;;;;;5044470;28;20424;-75
2021/01/06 01:58:24;;;;;;;7.53;6.82;;;3.80;73.30;;;;;;5044608;28;20126;-75
2021/01/06 02:00:53;;;;;;;9.20;8.02;;;3.80;73.30;;;;;;5043538;28;20033;-75
2021/01/06 02:03:33;;;;;;;7.78;7.07;;;3.80;73.30;;;;;;5044263;28;20499;-75
2021/01/06 02:06:06;;;;;;;7.55;6.57;;;3.80;73.30;;;;;;5044466;28;20414;-74
2021/01/06 02:08:50;;;;;;;8.65;7.28;;;3.80;73.40;;;;;;5044571;28;20033;-76
2021/01/06 02:11:36;;;;;;;9.77;7.07;;;3.70;73.20;;;;;;5045334;28;20809;-74
2021/01/06 02:14:08;;;;;;;9.82;6.75;;;3.70;73.20;;;;;;5042406;28;20220;-74
2021/01/06 02:17:04;;;;;;;8.10;7.03;;;3.70;73.20;;;;;;5026713;28;20598;-74
2021/01/06 02:19:40;;;;;;;9.25;7.50;;;3.70;73.20;;;;;;5038104;28;20075;-73
2021/01/06 02:22:10;;;;;;;7.07;6.38;;;3.70;73.20;;;;;;5043105;28;20025;-75
2021/01/06 02:24:36;;;;;;;9.82;7.47;;;3.70;73.30;;;;;;5044648;28;20033;-74
2021/01/06 02:27:04;;;;;;;8.90;6.75;;;3.70;73.30;;;;;;5044173;28;20029;-74
2021/01/06 02:29:32;;;;;;;8.73;6.10;;;3.70;73.30;;;;;;5042931;28;20206;-74
2021/01/06 02:31:59;;;;;;;8.82;7.10;;;3.70;73.30;;;;;;5044813;28;20495;-74
2021/01/06 02:34:25;;;;;;;9.00;6.55;;;3.70;73.30;;;;;;5044833;28;20083;-74
2021/01/06 02:36:52;;;;;;;8.95;6.93;;;3.70;73.30;;;;;;5045538;28;20029;-75
2021/01/06 02:39:18;;;;;;;11.15;7.93;;;3.70;73.30;;;;;;5045538;28;20056;-75
2021/01/06 02:41:47;;;;;;;9.30;7.68;;;3.60;73.10;;;;;;5044513;28;20269;-75
2021/01/06 02:44:14;;;;;;;7.78;6.97;;;3.70;73.80;;;;;;5045552;28;20086;-73
2021/01/06 02:46:40;;;;;;;12.00;7.68;;;3.70;73.30;;;;;;5033494;28;20111;-74
2021/01/06 02:49:07;;;;;;;10.40;6.53;;;3.70;73.30;;;;;;5028970;28;20547;-74
2021/01/06 02:51:46;;;;;;;13.60;7.20;;;3.70;73.30;;;;;;5029637;28;20031;-75
2021/01/06 02:54:18;;;;;;;7.95;7.15;;;3.60;73.10;;;;;;5046641;28;20129;-74
2021/01/06 02:56:45;;;;;;;10.38;6.38;;;3.60;73.60;;;;;;5049163;28;20041;-75
2021/01/06 02:59:14;;;;;;;10.35;6.88;;;3.60;73.10;;;;;;5052159;28;20476;-75
2021/01/06 03:01:42;;;;;;;8.23;6.47;;;3.60;73.10;;;;;;5052386;28;20088;-75
2021/01/06 03:04:17;;;;;;;12.77;7.68;;;3.60;73.10;;;;;;5052016;28;20039;-75
2021/01/06 03:06:54;;;;;;;9.43;6.93;;;3.60;73.10;;;;;;5052846;28;20106;-74
2021/01/06 03:09:25;;;;;;;11.00;6.95;;;3.60;73.10;;;;;;5052779;28;20033;-74
2021/01/06 03:11:51;;;;;;;7.57;6.78;;;3.60;73.10;;;;;;5052805;28;20052;-75
2021/01/06 03:14:18;;;;;;;6.78;5.93;;;3.60;73.20;;;;;;5052634;28;20102;-76
2021/01/06 03:16:44;;;;;;;8.82;6.88;;;3.60;73.20;;;;;;5053145;28;20036;-75
2021/01/06 03:19:11;;;;;;;7.55;6.45;;;3.60;73.20;;;;;;5052925;28;20538;-75
2021/01/06 03:21:41;;;;;;;8.25;6.78;;;3.50;73.00;;;;;;5051334;28;20564;-77
2021/01/06 03:24:09;;;;;;;7.18;6.25;;;3.60;73.20;;;;;;5053003;28;20460;-74
2021/01/06 03:26:37;;;;;;;7.75;6.47;;;3.50;73.10;;;;;;5051281;28;20102;-79
2021/01/06 03:29:04;;;;;;;10.40;7.13;;;3.50;73.10;;;;;;5052979;28;20446;-79
2021/01/06 03:31:45;;;;;;;6.70;6.00;;;3.50;73.10;;;;;;5051927;28;20085;-76
2021/01/06 03:34:24;;;;;;;8.50;7.28;;;3.50;73.10;;;;;;5052758;28;20472;-75
2021/01/06 03:37:07;;;;;;;7.43;6.70;;;3.50;73.10;;;;;;5052629;28;20025;-75
2021/01/06 03:39:41;;;;;;;10.40;7.03;;;3.50;73.10;;;;;;5051986;28;20086;-75
2021/01/06 03:42:08;;;;;;;9.02;6.68;;;3.50;73.10;;;;;;5051178;28;20060;-75
2021/01/06 03:44:34;;;;;;;9.60;6.38;;;3.50;73.20;;;;;;5052351;28;20025;-75
2021/01/06 03:47:19;;;;;;;9.05;6.55;;;3.40;73.00;;;;;;5050998;28;20045;-75
2021/01/06 03:49:57;;;;;;;6.30;5.70;;;3.50;73.20;;;;;;5051025;28;20029;-77
2021/01/06 03:52:48;;;;;;;8.38;7.60;;;3.40;73.00;;;;;;5052439;28;20040;-75
2021/01/06 03:55:35;;;;;;;10.82;7.57;;;3.40;73.00;;;;;;5050800;28;20033;-75
2021/01/06 03:58:04;;;;;;;8.50;7.00;;;3.40;73.00;;;;;;5052347;28;20424;-75
2021/01/06 04:00:50;;;;;;;7.22;6.22;;;3.40;73.00;;;;;;5052251;28;20472;-75
2021/01/06 04:03:28;;;;;;;8.82;7.78;;;3.40;73.00;;;;;;5050197;28;20033;-75
2021/01/06 04:05:57;;;;;;;7.30;6.63;;;3.40;73.00;;;;;;5052137;28;20481;-74
2021/01/06 04:08:36;;;;;;;9.00;6.75;;;3.40;73.10;;;;;;5052095;28;20054;-74
2021/01/06 04:11:04;;;;;;;7.90;6.55;;;3.40;73.10;;;;;;5051047;28;20100;-74
2021/01/06 04:13:30;;;;;;;8.48;7.25;;;3.40;73.10;;;;;;5052262;28;20025;-74
2021/01/06 04:15:56;;;;;;;8.88;7.45;;;3.30;72.90;;;;;;5051721;28;20503;-75
2021/01/06 04:18:23;;;;;;;8.70;6.78;;;3.30;72.90;;;;;;5050799;28;20094;-75
2021/01/06 04:20:49;;;;;;;8.15;5.82;;;3.30;73.00;;;;;;5051770;28;20066;-73
2021/01/06 04:23:17;;;;;;;10.57;6.70;;;3.30;73.00;;;;;;5051775;28;20033;-74
2021/01/06 04:25:46;;;;;;;7.18;6.40;;;3.30;73.00;;;;;;5051619;28;20048;-74
2021/01/06 04:28:20;;;;;;;7.80;6.97;;;3.30;73.00;;;;;;5051596;28;20037;-74
2021/01/06 04:30:45;;;;;;;7.32;6.63;;;3.30;73.00;;;;;;5051479;28;20124;-76
2021/01/06 04:33:29;;;;;;;8.80;6.68;;;3.30;73.00;;;;;;5051361;28;20116;-74
2021/01/06 04:35:57;;;;;;;10.67;6.33;;;3.30;73.00;;;;;;5051071;28;20025;-74
2021/01/06 04:38:29;;;;;;;9.43;6.45;;;3.30;73.50;;;;;;5051484;28;20788;-75
2021/01/06 04:40:58;;;;;;;10.15;6.30;;;3.30;73.00;;;;;;5033434;28;20025;-74
2021/01/06 04:43:36;;;;;;;8.20;6.40;;;3.30;73.10;;;;;;5051060;28;20397;-74
2021/01/06 04:46:13;;;;;;;7.35;6.43;;;3.20;72.90;;;;;;5049924;28;20175;-75
2021/01/06 04:48:57;;;;;;;6.55;5.95;;;3.30;73.00;;;;;;5050623;28;20417;-75
2021/01/06 04:51:52;;;;;;;10.55;7.32;;;3.30;73.00;;;;;;5051400;28;20033;-75
2021/01/06 04:54:21;;;;;;;;;;;3.20;72.80;;;;;;5049777;28;20434;-74
2021/01/06 04:56:54;;;;;;;6.20;5.57;;;3.20;72.90;;;;;;5049297;28;20036;-74
2021/01/06 04:59:29;;;;;;;7.17;6.43;;;3.20;72.80;;;;;;5050919;28;20452;-75
2021/01/06 05:02:23;;;;;;;7.78;6.05;;;3.20;72.80;;;;;;5048778;28;20439;-75
2021/01/06 05:05:01;;;;;;;10.57;6.05;;;3.20;72.80;;;;;;5051363;28;20120;-75
2021/01/06 05:07:58;;;;;;;6.80;6.20;;;3.20;72.80;;;;;;5050835;28;20441;-74
2021/01/06 05:10:37;;;;;;;8.25;6.28;;;3.20;72.90;;;;;;5049751;28;20090;-74
2021/01/06 05:13:12;;;;;;;9.85;6.38;;;3.20;72.90;;;;;;5050702;28;20025;-74
2021/01/06 05:15:54;;;;;;;7.07;6.30;;;3.10;72.70;;;;;;5050856;28;20071;-75
2021/01/06 05:18:21;;;;;;;7.20;6.50;;;3.10;72.80;;;;;;5050419;28;20037;-76
2021/01/06 05:20:47;;;;;;;7.78;6.80;;;3.10;72.80;;;;;;5032274;28;20040;-77
2021/01/06 05:23:22;;;;;;;8.00;6.05;;;3.10;72.80;;;;;;5050320;28;20031;-75
2021/01/06 05:25:49;;;;;;;7.85;6.68;;;3.10;72.80;;;;;;5050762;28;20116;-76
2021/01/06 05:28:18;;;;;;;7.03;6.32;;;3.10;72.80;;;;;;5050162;28;20040;-74
2021/01/06 05:30:46;;;;;;;7.20;6.47;;;3.10;72.80;;;;;;5049109;28;20499;-75
2021/01/06 05:33:27;;;;;;;7.38;6.65;;;3.10;72.90;;;;;;5048554;28;20419;-75
2021/01/06 05:35:53;;;;;;;7.38;6.68;;;3.10;72.90;;;;;;5050609;28;20039;-75
2021/01/06 05:38:20;;;;;;;6.78;6.18;;;3.10;72.90;;;;;;5050589;28;20029;-75
2021/01/06 05:40:46;;;;;;;7.40;6.30;;;3.10;73.00;;;;;;5049822;28;20120;-75
2021/01/06 05:43:18;;;;;;;8.88;7.40;;;3.10;72.90;;;;;;5049822;28;20484;-75
2021/01/06 05:45:55;;;;;;;9.73;6.78;;;3.10;72.90;;;;;;5049880;28;20099;-74
2021/01/06 05:48:43;;;;;;;11.35;7.07;;;3.10;73.00;;;;;;5045678;28;20449;-75
2021/01/06 05:51:35;;;;;;;8.65;6.68;;;3.10;72.90;;;;;;5034423;28;20547;-75
2021/01/06 05:54:18;;;;;;;7.80;6.88;;;3.10;72.90;;;;;;5044547;28;20132;-74
2021/01/06 05:57:03;;;;;;;8.18;6.68;;;3.10;72.90;;;;;;5044863;28;20029;-73
2021/01/06 06:00:06;;;;;;;9.27;7.65;;;3.10;73.40;;;;;;5044636;28;20029;-73
2021/01/06 06:02:50;;;;;;;7.88;7.15;;;3.10;72.90;;;;;;5043798;28;20325;-73
2021/01/06 06:05:54;;;;;;;7.90;6.95;;;3.10;72.80;;;;;;5043833;28;20484;-73
2021/01/06 06:08:42;;;;;;;7.38;6.65;;;3.10;72.80;;;;;;5044413;28;20506;-73
2021/01/06 06:11:30;;;;;;;7.28;6.57;;;3.10;72.80;;;;;;5043344;28;20025;-74
2021/01/06 06:14:05;;;;;;;8.15;6.57;;;3.10;72.80;;;;;;5042821;28;20104;-73
2021/01/06 06:16:48;;;;;;;9.73;7.30;;;3.10;72.80;;;;;;5045040;28;20364;-79
2021/01/06 06:19:48;;;;;;;9.02;7.38;;;3.20;73.00;;;;;;5044050;28;20830;-78
2021/01/06 06:23:00;;;;;;;10.90;8.25;;;3.20;73.00;;;;;;5045593;28;20032;-85
2021/01/06 06:25:30;;;;;;;15.45;8.88;;;3.20;73.00;;;;;;5044521;28;20032;-76
2021/01/06 06:28:06;;;;;;;10.23;7.57;;;3.20;73.00;;;;;;5044449;28;20400;-76
2021/01/06 06:30:35;;;;;;;10.02;8.65;;;3.20;73.00;;;;;;5044438;28;20033;-75
2021/01/06 06:33:12;;;;;;;11.45;8.73;;;3.20;73.00;;;;;;5043259;28;20060;-74
2021/01/06 06:35:38;;;;;;;11.10;8.93;;;3.20;73.00;;;;;;5043023;28;20033;-73
2021/01/06 06:38:08;;;;;;;13.27;8.65;;;3.20;73.00;;;;;;5045249;28;20029;-76
2021/01/06 06:40:52;;;;;;;9.10;8.05;;;3.20;73.00;;;;;;5044967;28;20120;-73
2021/01/06 06:43:40;;;;;;;10.02;8.80;;;3.30;73.20;;;;;;5044319;28;20492;-73
2021/01/06 06:46:16;;;;;;;13.07;8.38;;;3.20;72.90;;;;;;5038349;28;20077;-74
2021/01/06 06:49:07;;;;;;;13.55;8.20;;;3.30;73.10;;;;;;5044507;28;20075;-76
2021/01/06 06:51:49;;;;;;;8.52;7.68;;;3.20;72.90;;;;;;5044290;28;20488;-76
2021/01/06 06:54:23;;;;;;;12.05;9.13;;;3.30;73.00;;;;;;5044908;28;20037;-76
2021/01/06 06:57:04;;;;;;;;;;;3.30;73.10;;;;;;5045295;28;20480;-73
2021/01/06 06:59:54;;;;;;;8.35;7.45;;;3.30;73.10;;;;;;5043968;28;19929;-72
2021/01/06 07:02:20;;;;;;;10.05;7.57;;;3.30;73.00;;;;;;5044230;28;20028;-73
2021/01/06 07:04:51;;;;;;;14.20;8.48;;;3.30;73.00;;;;;;5044193;28;20025;-78
2021/01/06 07:07:40;;;;;;;9.68;7.97;;;3.30;73.00;;;;;;5044225;28;20055;-74
2021/01/06 07:10:26;;;;;;;9.02;8.00;;;3.30;73.10;;;;;;5042447;28;20465;-74
2021/01/06 07:12:56;;;;;;;10.13;7.78;;;3.30;73.00;;;;;;5041514;28;20029;-74
2021/01/06 07:15:39;;;;;;;10.65;8.20;;;3.30;73.10;;;;;;5038681;28;20057;-73
2021/01/06 07:18:27;;;;;;;11.10;7.80;;;3.30;73.10;;;;;;5042749;28;20887;-74
2021/01/06 07:21:20;;;;;;;7.68;6.88;;;3.30;73.10;;;;;;5042842;28;20037;-78
2021/01/06 07:23:46;;;;;;;15.63;8.48;;;3.30;73.10;;;;;;5044176;28;20071;-75
2021/01/06 07:26:17;;;;;;;10.45;8.05;;;3.30;73.10;;;;;;5044304;28;20106;-73
2021/01/06 07:28:43;;;;;;;9.70;8.70;;;3.30;73.20;;;;;;5043647;28;20037;-72
2021/01/06 07:31:23;;;;;;;11.45;8.73;;;3.40;73.40;;;;;;5044050;28;20044;-74
2021/01/06 07:33:56;;;;;;;10.82;9.52;;;3.40;73.40;;;;;;5043704;28;20040;-73
2021/01/06 07:36:27;;;;;;;12.47;8.60;;;3.50;73.60;;;;;;5041640;28;20067;-74
2021/01/06 07:38:54;;;;;;;12.70;8.48;;;3.50;73.50;;;;;;5036086;28;20496;-73
2021/01/06 07:41:22;;;;;;;9.15;8.23;;;3.50;73.40;;;;;;5040506;28;20068;-74
2021/01/06 07:44:28;;;;;;;11.95;7.72;;;3.50;73.40;;;;;;5044037;28;20661;-74
2021/01/06 07:47:17;;;;;;;9.73;8.27;;;3.60;73.60;;;;;;5047323;28;20033;-73
2021/01/06 07:49:53;;;;;;;9.85;7.85;;;3.60;73.50;;;;;;5047530;28;20477;-73
2021/01/06 07:52:50;;;;;;;10.85;7.32;;;3.60;73.50;;;;;;5077860;28;20056;-73
2021/01/06 07:55:19;;;;;;;10.85;8.52;;;3.50;73.30;;;;;;5046340;28;20032;-73
2021/01/06 07:57:52;;;;;;;9.27;7.68;;;3.60;73.50;;;;;;5047517;28;20068;-73
2021/01/06 08:00:34;;;;;;;14.13;7.97;;;3.60;73.50;;;;;;5047409;28;20029;-72
2021/01/06 08:03:16;;;;;;;9.18;7.38;;;3.60;73.50;;;;;;5046318;28;20539;-74
2021/01/06 08:05:42;;;;;;;8.63;7.78;;;3.60;73.50;;;;;;5047094;28;20025;-71
2021/01/06 08:08:14;;;;;;;9.70;7.75;;;3.60;73.50;;;;;;5046828;28;20811;-73
2021/01/06 08:10:47;;;;;;;8.25;7.45;;;3.60;73.50;;;;;;5046922;28;20517;-73
2021/01/06 08:13:19;;;;;;;10.02;7.68;;;3.60;73.50;;;;;;5045789;28;20431;-73
2021/01/06 08:15:49;;;;;;;9.55;8.25;;;3.60;73.50;;;;;;5046842;28;20033;-74
2021/01/06 08:18:21;;;;;;;7.95;7.15;;;3.60;74.00;;;;;;5046548;28;20024;-74
2021/01/06 08:21:23;;;;;;;10.15;7.38;;;3.60;73.50;;;;;;5046623;28;20072;-74
2021/01/06 08:23:57;;;;;;;7.97;7.05;;;3.60;73.50;;;;;;5024170;28;20045;-73
2021/01/06 08:26:27;;;;;;;;;;;3.60;73.50;;;;;;5047190;28;20036;-74
2021/01/06 08:29:14;;;;;;;9.20;7.18;;;3.60;73.50;;;;;;5044452;28;19925;-74
2021/01/06 08:31:41;;;;;;;11.20;6.85;;;3.60;73.40;;;;;;5046230;28;20293;-75
2021/01/06 08:34:07;;;;;;;9.07;6.38;;;3.60;73.90;;;;;;5045407;28;20029;-73
2021/01/06 08:36:36;;;;;;;7.57;6.50;;;3.70;73.60;;;;;;5045086;28;20454;-74
2021/01/06 08:39:30;;;;;;;7.78;6.97;;;3.70;73.70;;;;;;5046303;28;20451;-73
2021/01/06 08:42:06;;;;;;;10.55;7.22;;;3.70;73.60;;;;;;5042751;28;20550;-72
2021/01/06 08:44:36;;;;;;;9.85;7.85;;;3.70;73.60;;;;;;5044190;28;20567;-72
2021/01/06 08:47:05;;;;;;;7.82;7.03;;;3.70;73.50;;;;;;5045751;28;20504;-72
2021/01/06 08:49:38;;;;;;;7.55;6.47;;;3.70;73.50;;;;;;5044958;28;20041;-73
2021/01/06 08:52:30;;;;;;;10.48;7.63;;;3.70;73.60;;;;;;5045880;28;20056;-73
2021/01/06 08:54:58;;;;;;;8.32;6.70;;;3.70;73.60;;;;;;5043571;28;20170;-74
2021/01/06 08:57:27;;;;;;;8.25;6.97;;;3.80;73.70;;;;;;5028519;28;20453;-75
2021/01/06 08:59:53;;;;;;;10.73;6.88;;;3.80;73.70;;;;;;5027960;28;20483;-74
2021/01/06 09:02:41;;;;;;;7.30;6.50;;;3.80;73.70;;;;;;5043824;28;20455;-79
2021/01/06 09:05:42;;;;;;;7.78;6.63;;;3.80;73.70;;;;;;5045556;28;20036;-74
2021/01/06 09:08:19;;;;;;;10.13;6.55;;;3.90;73.80;;;;;;5044510;28;20471;-79
2021/01/06 09:11:07;;;;;;;10.18;6.75;;;3.90;73.70;;;;;;5044548;28;20411;-79
2021/01/06 09:13:54;;;;;;;7.72;6.95;;;3.90;73.70;;;;;;5044762;28;20082;-77
2021/01/06 09:16:47;;;;;;;8.65;6.70;;;3.90;73.60;;;;;;5027670;28;20098;-74
2021/01/06 09:19:16;;;;;;;9.10;6.18;;;3.90;73.60;;;;;;5045059;28;20029;-74
2021/01/06 09:21:43;;;;;;;7.28;6.55;;;4.00;73.80;;;;;;5046131;28;20052;-76
2021/01/06 09:24:15;;;;;;;10.10;6.95;;;4.00;73.80;;;;;;5044866;28;20037;-75
2021/01/06 09:26:50;;;;;;;7.10;6.40;;;4.00;73.80;;;;;;5045450;28;20051;-75
2021/01/06 09:29:18;;;;;;;11.85;8.23;;;4.00;73.80;;;;;;5045067;28;20037;-77
2021/01/06 09:31:52;;;;;;;9.85;7.28;;;4.00;73.80;;;;;;5045537;28;20082;-74
2021/01/06 09:34:27;;;;;;;7.97;6.70;;;4.10;74.40;;;;;;5045108;28;20065;-75
2021/01/06 09:36:54;;;;;;;7.88;7.18;;;4.10;73.90;;;;;;5045027;28;20132;-74
2021/01/06 09:39:31;;;;;;;10.65;7.07;;;4.10;73.90;;;;;;5043481;28;20396;-75
2021/01/06 09:41:59;;;;;;;7.35;6.18;;;4.10;73.90;;;;;;5045401;28;20029;-74
2021/01/06 09:44:28;;;;;;;9.63;7.82;;;4.20;74.10;;;;;;5023459;28;20040;-73
2021/01/06 09:46:54;;;;;;;7.38;6.65;;;4.10;73.80;;;;;;5025553;28;20049;-74
2021/01/06 09:49:26;;;;;;;7.20;6.30;;;4.20;74.00;;;;;;5038466;28;20043;-74
2021/01/06 09:51:55;;;;;;;7.65;6.82;;;4.20;74.00;;;;;;5044859;28;20511;-76
2021/01/06 09:54:22;;;;;;;8.48;6.47;;;4.20;74.00;;;;;;5045142;28;20025;-75
2021/01/06 09:56:48;;;;;;;11.80;7.63;;;4.30;74.20;;;;;;5044491;28;20449;-73
2021/01/06 09:59:33;;;;;;;8.27;7.35;;;4.30;74.20;;;;;;5044997;28;20032;-74
2021/01/06 10:02:06;;;;;;;9.50;6.75;;;4.30;74.10;;;;;;5042808;28;20059;-74
2021/01/06 10:04:36;;;;;;;9.03;7.73;;;4.40;74.30;;;;;;5045213;28;20096;-74
2021/01/06 10:07:32;;;;;;;10.45;7.60;;;4.40;74.30;;;;;;5044938;28;20032;-73
2021/01/06 10:10:31;;;;;;;8.38;7.47;;;4.40;74.20;;;;;;5044116;28;20114;-76
2021/01/06 10:13:00;;;;;;;7.88;7.07;;;4.50;74.30;;;;;;5044604;28;20064;-76
2021/01/06 10:15:54;;;;;;;8.55;7.57;;;4.50;74.30;;;;;;5044733;28;20334;-75
2021/01/06 10:18:44;;;;;;;12.43;8.25;;;4.50;74.20;;;;;;5042844;28;20120;-75
2021/01/06 10:21:32;;;;;;;11.20;7.55;;;4.60;74.90;;;;;;5044945;28;20116;-76
2021/01/06 10:24:29;;;;;;;11.98;6.85;;;4.60;74.30;;;;;;5043211;28;20029;-75
2021/01/06 10:27:20;;;;;;;11.50;7.90;;;4.70;74.50;;;;;;5044350;28;20044;-76
2021/01/06 10:29:50;;;;;;;13.73;7.55;;;4.70;74.40;;;;;;5044143;28;20060;-75
2021/01/06 10:32:16;;;;;;;9.35;6.68;;;4.70;74.30;;;;;;5043728;28;20075;-74
2021/01/06 10:34:46;;;;;;;11.63;7.40;;;4.70;74.30;;;;;;5044858;28;20036;-75
2021/01/06 10:37:25;;;;;;;12.45;8.63;;;4.80;74.50;;;;;;5043975;28;20076;-75
2021/01/06 10:39:54;;;;;;;7.57;6.88;;;4.80;74.50;;;;;;5044187;28;20029;-75
2021/01/06 10:42:20;;;;;;;12.13;8.27;;;4.80;74.40;;;;;;5043773;28;20124;-75
2021/01/06 10:44:53;;;;;;;11.55;7.90;;;4.80;74.40;;;;;;5044283;28;20128;-75
2021/01/06 10:47:31;;;;;;;9.85;7.78;;;4.90;74.60;;;;;;5043968;28;20369;-78
2021/01/06 10:50:21;;;;;;;8.43;7.20;;;4.90;74.50;;;;;;5042588;28;20127;-76
2021/01/06 10:53:07;;;;;;;7.22;6.50;;;4.90;74.50;;;;;;5043070;28;20033;-76
2021/01/06 10:55:48;;;;;;;11.73;7.43;;;4.90;74.60;;;;;;5042939;28;20419;-73
2021/01/06 10:58:27;;;;;;;8.85;7.32;;;5.00;74.80;;;;;;5043931;28;20511;-76
2021/01/06 11:01:17;;;;;;;12.43;6.97;;;5.00;74.80;;;;;;5044484;28;20055;-75
2021/01/06 11:04:31;;;;;;;9.57;7.40;;;5.10;74.90;;;;;;5042510;28;20436;-73
2021/01/06 11:07:14;;;;;;;8.63;7.28;;;5.10;74.90;;;;;;5020692;28;20037;-74
2021/01/06 11:10:05;;;;;;;17.77;7.47;;;5.20;75.10;;;;;;5043733;28;20068;-75
2021/01/06 11:12:40;;;;;;;9.57;7.70;;;5.20;75.00;;;;;;5042537;28;20044;-75
2021/01/06 11:15:29;;;;;;;14.27;7.88;;;5.30;75.20;;;;;;5026194;28;20395;-75
2021/01/06 11:18:04;;;;;;;10.30;7.80;;;5.30;75.10;;;;;;5042251;28;20054;-76
2021/01/06 11:20:36;;;;;;;11.15;7.68;;;5.40;75.30;;;;;;5047408;28;20174;-77
2021/01/06 11:23:26;;;;;;;9.93;8.60;;;5.40;75.20;;;;;;5047528;28;20478;-76
2021/01/06 11:26:30;;;;;;;11.85;7.97;;;5.50;75.40;;;;;;5046566;28;20464;-74
2021/01/06 11:29:11;;;;;;;9.82;8.13;;;5.50;75.30;;;;;;5023226;28;20345;-75
2021/01/06 11:31:40;;;;;;;9.15;7.75;;;5.60;75.40;;;;;;5046764;28;20037;-79
2021/01/06 11:34:09;;;;;;;11.38;7.63;;;5.60;75.30;;;;;;5048066;28;20033;-76
2021/01/06 11:36:47;;;;;;;10.52;9.43;;;5.70;75.40;;;;;;5046299;28;20029;-76
2021/01/06 11:39:35;;;;;;;10.05;9.00;;;5.80;75.60;;;;;;5048529;28;20032;-78
2021/01/06 11:42:14;;;;;;;10.38;8.20;;;5.80;75.60;;;;;;5046804;28;20079;-78
2021/01/06 11:45:06;;;;;;;9.88;8.88;;;5.90;75.70;;;;;;5047513;28;20827;-77
2021/01/06 11:48:04;;;;;;;12.40;8.93;;;6.00;75.90;;;;;;5047127;28;20063;-77
2021/01/06 11:50:41;;;;;;;10.40;9.43;;;6.10;76.00;;;;;;5043176;28;20409;-75
2021/01/06 11:53:11;;;;;;;10.95;9.07;;;6.10;75.80;;;;;;5046236;28;20083;-76
2021/01/06 11:55:40;;;;;;;11.60;9.82;;;6.10;75.80;;;;;;5047567;28;20044;-75
2021/01/06 11:58:09;;;;;;;11.80;10.70;;;6.20;75.90;;;;;;5045988;28;20045;-77
2021/01/06 12:00:41;;;;;;;10.90;9.80;;;6.30;76.00;;;;;;5045712;28;20109;-74
2021/01/06 12:03:07;;;;;;;10.48;9.38;;;6.30;76.00;;;;;;5045609;28;20044;-77
2021/01/06 12:05:39;;;;;;;11.60;10.15;;;6.40;76.10;;;;;;5047565;28;20033;-75
2021/01/06 12:08:19;;;;;;;11.85;10.65;;;6.40;76.00;;;;;;5046071;28;20029;-76
2021/01/06 12:10:54;;;;;;;11.45;10.32;;;6.50;76.10;;;;;;5046953;28;20032;-75
2021/01/06 12:13:53;;;;;;;10.80;9.75;;;6.50;76.10;;;;;;5046830;28;20048;-74
2021/01/06 12:16:32;;;;;;;14.30;10.85;;;6.60;76.20;;;;;;5046786;28;20037;-75
2021/01/06 12:19:28;;;;;;;10.50;9.55;;;6.60;76.10;;;;;;5046283;28;20028;-76
2021/01/06 12:22:00;;;;;;;11.65;10.52;;;6.70;76.20;;;;;;5031271;28;20029;-76
2021/01/06 12:24:28;;;;;;;11.70;10.48;;;6.80;76.20;;;;;;5046913;28;20112;-76
2021/01/06 12:26:57;;;;;;;11.73;10.52;;;6.80;76.10;;;;;;5045528;28;20132;-75
2021/01/06 12:29:28;;;;;;;12.45;11.00;;;6.80;76.00;;;;;;5046736;28;20131;-76
2021/01/06 12:32:11;;;;;;;11.40;10.38;;;6.90;76.10;;;;;;5045130;28;20166;-78
2021/01/06 12:34:43;;;;;;;11.27;10.10;;;7.00;76.20;;;;;;5046580;28;20510;-78
2021/01/06 12:37:12;;;;;;;12.90;11.35;;;7.10;76.20;;;;;;5046735;28;20128;-77
2021/01/06 12:39:39;;;;;;;13.32;10.48;;;7.00;75.90;;;;;;5046332;28;20163;-77
2021/01/06 12:42:26;;;;;;;13.13;11.20;;;7.10;76.10;;;;;;5044899;28;20439;-76
2021/01/06 12:45:17;;;;;;;12.70;11.40;;;7.10;76.10;;;;;;5044833;28;20039;-76
2021/01/06 12:48:12;;;;;;;11.00;9.93;;;7.20;76.20;;;;;;5028409;28;20051;-76
2021/01/06 12:51:18;;;;;;;11.57;10.38;;;7.20;76.10;;;;;;5027708;28;20050;-75
2021/01/06 12:53:59;;;;;;;13.02;11.63;;;7.30;76.10;;;;;;5046147;28;20028;-76
2021/01/06 12:56:28;;;;;;;11.75;10.52;;;7.20;75.90;;;;;;5041740;28;20524;-75
2021/01/06 12:59:14;;;;;;;11.63;10.23;;;7.30;76.00;;;;;;5043885;28;20083;-75
2021/01/06 13:01:58;;;;;;;12.55;11.30;;;7.30;75.90;;;;;;5044417;28;20174;-74
2021/01/06 13:04:35;;;;;;;12.27;10.43;;;7.30;75.90;;;;;;5045592;28;20041;-75
2021/01/06 13:07:15;;;;;;;11.32;10.18;;;7.30;75.80;;;;;;5045899;28;20082;-76
2021/01/06 13:10:21;;;;;;;14.13;9.43;;;7.30;75.80;;;;;;5045210;28;20033;-76
2021/01/06 13:12:53;;;;;;;12.90;10.30;;;7.20;75.50;;;;;;5044356;28;20033;-75
2021/01/06 13:15:43;;;;;;;11.98;10.80;;;7.30;75.70;;;;;;5045716;28;20044;-75
2021/01/06 13:18:17;;;;;;;11.30;10.15;;;7.20;75.40;;;;;;5045295;28;20036;-75
2021/01/06 13:21:18;;;;;;;13.15;11.77;;;7.20;75.40;;;;;;5045466;28;20098;-75
2021/01/06 13:23:57;;;;;;;12.77;11.50;;;7.20;75.40;;;;;;5032368;28;20236;-77
2021/01/06 13:26:29;;;;;;;15.45;12.02;;;7.20;75.30;;;;;;5046000;28;20055;-76
2021/01/06 13:29:27;;;;;;;14.52;12.63;;;7.20;75.30;;;;;;5044063;28;20028;-75
2021/01/06 13:32:06;;;;;;;25.45;12.93;;;7.20;75.30;;;;;;5041125;28;20080;-75
2021/01/06 13:34:50;;;;;;;13.65;12.35;;;7.20;75.30;;;;;;5045025;28;20029;-77
2021/01/06 13:37:19;;;;;;;;;;;7.20;75.30;;;;;;5046049;28;20522;-78
2021/01/06 13:40:06;;;;;;;19.02;11.95;;;7.20;75.40;;;;;;5043548;28;20008;-77